sensor_id;sensor_type;location;lat;lon;timestamp;temperature;humidity
33881;DHT22;20172;47.530;10.256;2022-09-09T00:02:21;15.40;99.90
33881;DHT22;20172;47.530;10.256;2022-09-09T00:07:25;15.70;99.90
33881;DHT22;20172;47.530;10.256;2022-09-09T00:12:25;16.00;99.90
33881;DHT22;20172;47.530;10.256;2022-09-09T00:15:02;15.70;99.90
33881;DHT22;20172;47.530;10.256;2022-09-09T00:19:59;15.70;99.90
33881;DHT22;20172;47.530;10.256;2022-09-09T00:22:27;15.80;99.90
33881;DHT22;20172;47.530;10.256;2022-09-09T00:24:54;15.70;99.90
33881;DHT22;20172;47.530;10.256;2022-09-09T00:29:47;15.70;99.90
33881;DHT22;20172;47.530;10.256;2022-09-09T00:32:16;15.80;99.90
33881;DHT22;20172;47.530;10.256;2022-09-09T00:34:52;15.90;99.90
33881;DHT22;20172;47.530;10.256;2022-09-09T00:37:19;15.80;99.90
33881;DHT22;20172;47.530;10.256;2022-09-09T00:39:46;15.70;99.90
33881;DHT22;20172;47.530;10.256;2022-09-09T00:42:18;15.80;99.90
33881;DHT22;20172;47.530;10.256;2022-09-09T00:50:03;15.50;99.90
33881;DHT22;20172;47.530;10.256;2022-09-09T00:52:36;15.60;99.90
33881;DHT22;20172;47.530;10.256;2022-09-09T00:57:38;15.50;99.90
33881;DHT22;20172;47.530;10.256;2022-09-09T01:00:17;15.30;99.90
33881;DHT22;20172;47.530;10.256;2022-09-09T01:05:15;15.30;99.90
33881;DHT22;20172;47.530;10.256;2022-09-09T01:07:46;15.30;99.90
33881;DHT22;20172;47.530;10.256;2022-09-09T01:12:57;15.70;99.90
33881;DHT22;20172;47.530;10.256;2022-09-09T01:15:25;15.60;99.90
33881;DHT22;20172;47.530;10.256;2022-09-09T01:28:17;15.60;99.90
33881;DHT22;20172;47.530;10.256;2022-09-09T01:30:45;15.70;99.90
33881;DHT22;20172;47.530;10.256;2022-09-09T01:33:15;15.60;99.90
33881;DHT22;20172;47.530;10.256;2022-09-09T01:36:00;15.40;99.90
33881;DHT22;20172;47.530;10.256;2022-09-09T01:38:29;15.10;99.90
33881;DHT22;20172;47.530;10.256;2022-09-09T01:40:56;15.20;99.90
33881;DHT22;20172;47.530;10.256;2022-09-09T01:43:23;15.40;99.90
33881;DHT22;20172;47.530;10.256;2022-09-09T01:45:51;15.40;99.90
33881;DHT22;20172;47.530;10.256;2022-09-09T01:48:17;15.50;99.90
33881;DHT22;20172;47.530;10.256;2022-09-09T01:50:43;15.50;99.90
33881;DHT22;20172;47.530;10.256;2022-09-09T01:53:08;15.50;99.90
33881;DHT22;20172;47.530;10.256;2022-09-09T01:55:38;15.40;99.90
33881;DHT22;20172;47.530;10.256;2022-09-09T02:00:29;15.40;99.90
33881;DHT22;20172;47.530;10.256;2022-09-09T02:03:14;15.40;99.90
33881;DHT22;20172;47.530;10.256;2022-09-09T02:05:45;15.30;99.90
33881;DHT22;20172;47.530;10.256;2022-09-09T02:08:17;15.20;99.90
33881;DHT22;20172;47.530;10.256;2022-09-09T02:13:16;15.50;99.90
33881;DHT22;20172;47.530;10.256;2022-09-09T02:15:55;15.60;99.90
33881;DHT22;20172;47.530;10.256;2022-09-09T02:18:27;15.60;99.90
33881;DHT22;20172;47.530;10.256;2022-09-09T02:20:54;15.50;99.90
33881;DHT22;20172;47.530;10.256;2022-09-09T02:23:21;15.50;99.90
33881;DHT22;20172;47.530;10.256;2022-09-09T02:25:46;15.50;99.90
33881;DHT22;20172;47.530;10.256;2022-09-09T02:28:13;15.40;99.90
33881;DHT22;20172;47.530;10.256;2022-09-09T02:30:40;15.20;99.90
33881;DHT22;20172;47.530;10.256;2022-09-09T02:33:06;14.90;99.90
33881;DHT22;20172;47.530;10.256;2022-09-09T02:35:33;14.90;99.90
33881;DHT22;20172;47.530;10.256;2022-09-09T02:38:03;15.00;99.90
33881;DHT22;20172;47.530;10.256;2022-09-09T02:40:29;15.10;99.90
33881;DHT22;20172;47.530;10.256;2022-09-09T02:42:54;14.90;99.90
33881;DHT22;20172;47.530;10.256;2022-09-09T02:45:22;14.90;99.90
33881;DHT22;20172;47.530;10.256;2022-09-09T02:47:51;14.90;99.90
33881;DHT22;20172;47.530;10.256;2022-09-09T02:55:13;14.70;99.90
33881;DHT22;20172;47.530;10.256;2022-09-09T02:57:41;14.90;99.90
33881;DHT22;20172;47.530;10.256;2022-09-09T03:00:08;15.10;99.90
33881;DHT22;20172;47.530;10.256;2022-09-09T03:02:33;15.10;99.90
33881;DHT22;20172;47.530;10.256;2022-09-09T03:04:59;15.10;99.90
33881;DHT22;20172;47.530;10.256;2022-09-09T03:07:24;15.20;99.90
33881;DHT22;20172;47.530;10.256;2022-09-09T03:09:50;15.50;99.90
33881;DHT22;20172;47.530;10.256;2022-09-09T03:12:15;15.40;99.90
33881;DHT22;20172;47.530;10.256;2022-09-09T03:14:41;15.40;99.90
33881;DHT22;20172;47.530;10.256;2022-09-09T03:17:08;15.50;99.90
33881;DHT22;20172;47.530;10.256;2022-09-09T03:19:34;15.60;99.90
33881;DHT22;20172;47.530;10.256;2022-09-09T03:22:00;15.50;99.90
33881;DHT22;20172;47.530;10.256;2022-09-09T03:24:26;15.40;99.90
33881;DHT22;20172;47.530;10.256;2022-09-09T03:26:51;15.10;99.90
33881;DHT22;20172;47.530;10.256;2022-09-09T03:29:17;14.90;99.90
33881;DHT22;20172;47.530;10.256;2022-09-09T03:31:43;14.90;99.90
33881;DHT22;20172;47.530;10.256;2022-09-09T03:34:09;14.80;99.90
33881;DHT22;20172;47.530;10.256;2022-09-09T03:36:35;14.80;99.90
33881;DHT22;20172;47.530;10.256;2022-09-09T03:39:00;14.80;99.90
33881;DHT22;20172;47.530;10.256;2022-09-09T03:41:28;15.00;99.90
33881;DHT22;20172;47.530;10.256;2022-09-09T03:43:53;14.80;99.90
33881;DHT22;20172;47.530;10.256;2022-09-09T03:46:19;14.70;99.90
33881;DHT22;20172;47.530;10.256;2022-09-09T03:48:45;14.70;99.90
33881;DHT22;20172;47.530;10.256;2022-09-09T03:51:11;14.80;99.90
33881;DHT22;20172;47.530;10.256;2022-09-09T03:53:36;14.90;99.90
33881;DHT22;20172;47.530;10.256;2022-09-09T03:56:04;14.80;99.90
33881;DHT22;20172;47.530;10.256;2022-09-09T03:58:30;14.90;99.90
33881;DHT22;20172;47.530;10.256;2022-09-09T04:00:57;15.10;99.90
33881;DHT22;20172;47.530;10.256;2022-09-09T04:03:23;15.20;99.90
33881;DHT22;20172;47.530;10.256;2022-09-09T04:05:50;15.40;99.90
33881;DHT22;20172;47.530;10.256;2022-09-09T04:08:16;15.50;99.90
33881;DHT22;20172;47.530;10.256;2022-09-09T04:10:44;15.50;99.90
33881;DHT22;20172;47.530;10.256;2022-09-09T04:13:09;15.50;99.90
33881;DHT22;20172;47.530;10.256;2022-09-09T04:15:35;15.60;99.90
33881;DHT22;20172;47.530;10.256;2022-09-09T04:18:00;15.50;99.90
33881;DHT22;20172;47.530;10.256;2022-09-09T04:20:26;15.30;99.90
33881;DHT22;20172;47.530;10.256;2022-09-09T04:22:51;15.30;99.90
33881;DHT22;20172;47.530;10.256;2022-09-09T04:25:17;15.40;99.90
33881;DHT22;20172;47.530;10.256;2022-09-09T04:27:42;15.50;99.90
33881;DHT22;20172;47.530;10.256;2022-09-09T04:30:08;15.60;99.90
33881;DHT22;20172;47.530;10.256;2022-09-09T04:32:34;15.80;99.90
33881;DHT22;20172;47.530;10.256;2022-09-09T04:35:01;15.90;99.90
33881;DHT22;20172;47.530;10.256;2022-09-09T04:37:26;16.00;99.90
33881;DHT22;20172;47.530;10.256;2022-09-09T04:39:52;16.00;99.90
33881;DHT22;20172;47.530;10.256;2022-09-09T04:42:17;15.90;99.90
33881;DHT22;20172;47.530;10.256;2022-09-09T04:44:44;15.80;99.90
33881;DHT22;20172;47.530;10.256;2022-09-09T04:47:10;15.80;99.90
33881;DHT22;20172;47.530;10.256;2022-09-09T04:49:35;15.60;99.90
33881;DHT22;20172;47.530;10.256;2022-09-09T04:52:04;15.40;99.90
33881;DHT22;20172;47.530;10.256;2022-09-09T04:54:30;15.50;99.90
33881;DHT22;20172;47.530;10.256;2022-09-09T04:56:55;15.70;99.90
33881;DHT22;20172;47.530;10.256;2022-09-09T04:59:21;15.70;99.90
33881;DHT22;20172;47.530;10.256;2022-09-09T05:01:47;15.80;99.90
33881;DHT22;20172;47.530;10.256;2022-09-09T05:04:13;15.90;99.90
33881;DHT22;20172;47.530;10.256;2022-09-09T05:06:40;16.10;99.90
33881;DHT22;20172;47.530;10.256;2022-09-09T05:09:06;16.20;99.90
33881;DHT22;20172;47.530;10.256;2022-09-09T05:11:32;16.20;99.90
33881;DHT22;20172;47.530;10.256;2022-09-09T05:13:58;16.20;99.90
33881;DHT22;20172;47.530;10.256;2022-09-09T05:16:23;16.20;99.90
33881;DHT22;20172;47.530;10.256;2022-09-09T05:18:49;16.30;99.90
33881;DHT22;20172;47.530;10.256;2022-09-09T05:21:16;16.40;99.90
33881;DHT22;20172;47.530;10.256;2022-09-09T05:23:42;16.30;99.90
33881;DHT22;20172;47.530;10.256;2022-09-09T05:26:12;16.30;99.90
33881;DHT22;20172;47.530;10.256;2022-09-09T05:28:38;16.20;99.90
33881;DHT22;20172;47.530;10.256;2022-09-09T05:31:05;16.20;99.90
33881;DHT22;20172;47.530;10.256;2022-09-09T05:33:33;16.40;99.90
33881;DHT22;20172;47.530;10.256;2022-09-09T05:36:06;16.40;99.90
33881;DHT22;20172;47.530;10.256;2022-09-09T05:38:33;16.20;99.90
33881;DHT22;20172;47.530;10.256;2022-09-09T05:40:59;16.30;99.90
33881;DHT22;20172;47.530;10.256;2022-09-09T05:43:25;16.40;99.90
33881;DHT22;20172;47.530;10.256;2022-09-09T05:46:24;16.30;99.90
33881;DHT22;20172;47.530;10.256;2022-09-09T05:48:44;16.00;99.90
33881;DHT22;20172;47.530;10.256;2022-09-09T05:51:12;15.90;99.90
33881;DHT22;20172;47.530;10.256;2022-09-09T05:53:38;16.10;99.90
33881;DHT22;20172;47.530;10.256;2022-09-09T05:56:05;16.40;99.90
33881;DHT22;20172;47.530;10.256;2022-09-09T05:58:34;16.60;99.90
33881;DHT22;20172;47.530;10.256;2022-09-09T06:01:07;16.70;99.90
33881;DHT22;20172;47.530;10.256;2022-09-09T06:03:33;16.70;99.90
33881;DHT22;20172;47.530;10.256;2022-09-09T06:06:03;16.80;99.90
33881;DHT22;20172;47.530;10.256;2022-09-09T06:08:36;16.80;99.90
33881;DHT22;20172;47.530;10.256;2022-09-09T06:11:09;16.80;99.90
33881;DHT22;20172;47.530;10.256;2022-09-09T06:13:35;16.80;99.90
33881;DHT22;20172;47.530;10.256;2022-09-09T06:16:02;16.90;99.90
33881;DHT22;20172;47.530;10.256;2022-09-09T06:18:28;16.90;99.90
33881;DHT22;20172;47.530;10.256;2022-09-09T06:23:20;17.10;99.90
33881;DHT22;20172;47.530;10.256;2022-09-09T06:25:45;17.20;99.90
33881;DHT22;20172;47.530;10.256;2022-09-09T06:28:11;17.20;99.90
33881;DHT22;20172;47.530;10.256;2022-09-09T06:30:36;17.40;99.90
33881;DHT22;20172;47.530;10.256;2022-09-09T06:33:02;17.30;99.90
33881;DHT22;20172;47.530;10.256;2022-09-09T06:35:28;17.20;99.90
33881;DHT22;20172;47.530;10.256;2022-09-09T06:37:54;17.20;99.90
33881;DHT22;20172;47.530;10.256;2022-09-09T06:40:19;17.00;99.90
33881;DHT22;20172;47.530;10.256;2022-09-09T06:42:45;16.90;99.90
33881;DHT22;20172;47.530;10.256;2022-09-09T06:45:11;17.00;99.90
33881;DHT22;20172;47.530;10.256;2022-09-09T06:47:37;17.00;99.90
33881;DHT22;20172;47.530;10.256;2022-09-09T06:50:02;17.30;99.90
33881;DHT22;20172;47.530;10.256;2022-09-09T06:52:28;17.50;99.90
33881;DHT22;20172;47.530;10.256;2022-09-09T06:54:53;17.90;99.90
33881;DHT22;20172;47.530;10.256;2022-09-09T06:57:19;18.10;99.90
33881;DHT22;20172;47.530;10.256;2022-09-09T06:59:45;18.40;99.90
33881;DHT22;20172;47.530;10.256;2022-09-09T07:02:10;18.60;99.90
33881;DHT22;20172;47.530;10.256;2022-09-09T07:04:36;18.70;99.90
33881;DHT22;20172;47.530;10.256;2022-09-09T07:07:02;18.80;99.90
33881;DHT22;20172;47.530;10.256;2022-09-09T07:09:27;18.90;99.90
33881;DHT22;20172;47.530;10.256;2022-09-09T07:11:54;19.00;99.90
33881;DHT22;20172;47.530;10.256;2022-09-09T07:14:20;18.90;99.90
33881;DHT22;20172;47.530;10.256;2022-09-09T07:16:46;18.80;99.90
33881;DHT22;20172;47.530;10.256;2022-09-09T07:19:11;18.70;99.90
33881;DHT22;20172;47.530;10.256;2022-09-09T07:21:37;18.70;99.90
33881;DHT22;20172;47.530;10.256;2022-09-09T07:24:03;18.70;99.90
33881;DHT22;20172;47.530;10.256;2022-09-09T07:26:32;18.70;99.90
33881;DHT22;20172;47.530;10.256;2022-09-09T07:28:58;18.70;99.90
33881;DHT22;20172;47.530;10.256;2022-09-09T07:31:28;18.70;99.90
33881;DHT22;20172;47.530;10.256;2022-09-09T07:33:55;18.80;99.90
33881;DHT22;20172;47.530;10.256;2022-09-09T07:36:22;18.80;99.90
33881;DHT22;20172;47.530;10.256;2022-09-09T07:38:49;18.90;99.90
33881;DHT22;20172;47.530;10.256;2022-09-09T07:43:45;18.80;99.90
33881;DHT22;20172;47.530;10.256;2022-09-09T07:46:12;18.70;99.90
33881;DHT22;20172;47.530;10.256;2022-09-09T07:48:38;18.80;99.90
33881;DHT22;20172;47.530;10.256;2022-09-09T07:51:08;18.80;99.90
33881;DHT22;20172;47.530;10.256;2022-09-09T07:53:34;18.70;99.90
33881;DHT22;20172;47.530;10.256;2022-09-09T07:56:04;18.80;99.90
33881;DHT22;20172;47.530;10.256;2022-09-09T07:58:29;18.60;99.90
33881;DHT22;20172;47.530;10.256;2022-09-09T08:00:55;18.60;99.90
33881;DHT22;20172;47.530;10.256;2022-09-09T08:03:20;18.70;99.90
33881;DHT22;20172;47.530;10.256;2022-09-09T08:05:47;18.70;99.90
33881;DHT22;20172;47.530;10.256;2022-09-09T08:08:12;18.80;99.90
33881;DHT22;20172;47.530;10.256;2022-09-09T08:10:38;18.70;99.90
33881;DHT22;20172;47.530;10.256;2022-09-09T08:13:03;18.60;99.90
33881;DHT22;20172;47.530;10.256;2022-09-09T08:15:30;18.30;99.90
33881;DHT22;20172;47.530;10.256;2022-09-09T08:17:56;18.30;99.90
33881;DHT22;20172;47.530;10.256;2022-09-09T08:20:21;18.20;99.90
33881;DHT22;20172;47.530;10.256;2022-09-09T08:22:48;18.30;99.90
33881;DHT22;20172;47.530;10.256;2022-09-09T08:25:15;18.40;99.90
33881;DHT22;20172;47.530;10.256;2022-09-09T08:27:40;18.50;99.90
33881;DHT22;20172;47.530;10.256;2022-09-09T08:30:06;18.60;99.90
33881;DHT22;20172;47.530;10.256;2022-09-09T08:32:32;18.50;99.90
33881;DHT22;20172;47.530;10.256;2022-09-09T08:35:00;18.40;99.90
33881;DHT22;20172;47.530;10.256;2022-09-09T08:37:25;18.40;99.90
33881;DHT22;20172;47.530;10.256;2022-09-09T08:39:51;18.40;99.90
33881;DHT22;20172;47.530;10.256;2022-09-09T08:42:37;18.30;99.90
33881;DHT22;20172;47.530;10.256;2022-09-09T08:45:20;18.40;99.90
33881;DHT22;20172;47.530;10.256;2022-09-09T08:55:52;18.40;99.90
33881;DHT22;20172;47.530;10.256;2022-09-09T09:08:48;18.40;99.90
33881;DHT22;20172;47.530;10.256;2022-09-09T09:11:16;18.30;99.90
33881;DHT22;20172;47.530;10.256;2022-09-09T09:13:47;18.30;99.90
33881;DHT22;20172;47.530;10.256;2022-09-09T09:16:22;18.20;99.90
33881;DHT22;20172;47.530;10.256;2022-09-09T09:18:48;18.00;99.90
33881;DHT22;20172;47.530;10.256;2022-09-09T09:21:39;18.00;99.90
33881;DHT22;20172;47.530;10.256;2022-09-09T09:24:01;17.80;99.90
33881;DHT22;20172;47.530;10.256;2022-09-09T09:26:30;17.70;99.90
33881;DHT22;20172;47.530;10.256;2022-09-09T09:28:57;17.60;99.90
33881;DHT22;20172;47.530;10.256;2022-09-09T09:31:24;17.60;99.90
33881;DHT22;20172;47.530;10.256;2022-09-09T09:33:55;17.60;99.90
33881;DHT22;20172;47.530;10.256;2022-09-09T09:36:25;17.70;99.90
33881;DHT22;20172;47.530;10.256;2022-09-09T09:38:58;17.60;99.90
33881;DHT22;20172;47.530;10.256;2022-09-09T09:41:29;17.60;99.90
33881;DHT22;20172;47.530;10.256;2022-09-09T09:43:55;17.60;99.90
33881;DHT22;20172;47.530;10.256;2022-09-09T09:46:21;17.70;99.90
33881;DHT22;20172;47.530;10.256;2022-09-09T09:48:58;17.70;99.90
33881;DHT22;20172;47.530;10.256;2022-09-09T09:51:25;17.80;99.90
33881;DHT22;20172;47.530;10.256;2022-09-09T09:53:51;17.80;99.90
33881;DHT22;20172;47.530;10.256;2022-09-09T09:56:25;18.00;99.90
33881;DHT22;20172;47.530;10.256;2022-09-09T09:58:51;17.90;99.90
33881;DHT22;20172;47.530;10.256;2022-09-09T10:01:28;18.10;99.90
33881;DHT22;20172;47.530;10.256;2022-09-09T10:03:57;18.20;99.90
33881;DHT22;20172;47.530;10.256;2022-09-09T10:06:36;18.20;99.90
33881;DHT22;20172;47.530;10.256;2022-09-09T10:09:04;18.10;99.90
33881;DHT22;20172;47.530;10.256;2022-09-09T10:11:40;18.10;99.90
33881;DHT22;20172;47.530;10.256;2022-09-09T10:19:15;18.50;99.90
33881;DHT22;20172;47.530;10.256;2022-09-09T10:24:30;18.80;99.90
33881;DHT22;20172;47.530;10.256;2022-09-09T10:36:58;17.30;99.90
33881;DHT22;20172;47.530;10.256;2022-09-09T10:39:31;17.40;99.90
33881;DHT22;20172;47.530;10.256;2022-09-09T10:42:06;17.60;99.90
33881;DHT22;20172;47.530;10.256;2022-09-09T10:44:46;17.60;99.90
33881;DHT22;20172;47.530;10.256;2022-09-09T10:57:38;17.00;99.90
33881;DHT22;20172;47.530;10.256;2022-09-09T11:00:17;17.00;99.90
33881;DHT22;20172;47.530;10.256;2022-09-09T11:02:43;17.10;99.90
33881;DHT22;20172;47.530;10.256;2022-09-09T11:05:13;17.50;99.90
33881;DHT22;20172;47.530;10.256;2022-09-09T11:07:40;17.40;99.90
33881;DHT22;20172;47.530;10.256;2022-09-09T11:10:19;17.10;99.90
33881;DHT22;20172;47.530;10.256;2022-09-09T11:12:46;17.00;99.90
33881;DHT22;20172;47.530;10.256;2022-09-09T11:15:17;16.90;99.90
33881;DHT22;20172;47.530;10.256;2022-09-09T11:17:46;16.90;99.90
33881;DHT22;20172;47.530;10.256;2022-09-09T11:20:14;17.00;99.90
33881;DHT22;20172;47.530;10.256;2022-09-09T11:22:45;17.00;99.90
33881;DHT22;20172;47.530;10.256;2022-09-09T11:25:23;17.10;99.90
33881;DHT22;20172;47.530;10.256;2022-09-09T11:30:32;17.00;99.90
33881;DHT22;20172;47.530;10.256;2022-09-09T11:38:05;16.50;99.90
33881;DHT22;20172;47.530;10.256;2022-09-09T11:40:36;16.40;99.90
33881;DHT22;20172;47.530;10.256;2022-09-09T11:43:07;16.60;99.90
33881;DHT22;20172;47.530;10.256;2022-09-09T11:45:35;16.40;99.90
33881;DHT22;20172;47.530;10.256;2022-09-09T11:48:02;16.40;99.90
33881;DHT22;20172;47.530;10.256;2022-09-09T11:50:29;16.40;99.90
33881;DHT22;20172;47.530;10.256;2022-09-09T11:53:18;16.50;99.90
33881;DHT22;20172;47.530;10.256;2022-09-09T11:55:41;16.30;99.90
33881;DHT22;20172;47.530;10.256;2022-09-09T12:00:37;16.50;99.90
33881;DHT22;20172;47.530;10.256;2022-09-09T12:03:06;16.50;99.90
33881;DHT22;20172;47.530;10.256;2022-09-09T12:05:41;16.50;99.90
33881;DHT22;20172;47.530;10.256;2022-09-09T12:08:11;16.60;99.90
33881;DHT22;20172;47.530;10.256;2022-09-09T12:10:39;16.60;99.90
33881;DHT22;20172;47.530;10.256;2022-09-09T12:15:34;18.00;99.90
33881;DHT22;20172;47.530;10.256;2022-09-09T12:18:00;18.20;99.90
33881;DHT22;20172;47.530;10.256;2022-09-09T12:30:32;18.40;99.90
33881;DHT22;20172;47.530;10.256;2022-09-09T12:33:01;17.80;99.90
33881;DHT22;20172;47.530;10.256;2022-09-09T12:35:27;17.80;99.90
33881;DHT22;20172;47.530;10.256;2022-09-09T12:37:57;18.40;99.90
33881;DHT22;20172;47.530;10.256;2022-09-09T12:40:25;18.30;99.90
33881;DHT22;20172;47.530;10.256;2022-09-09T12:42:51;18.20;99.90
33881;DHT22;20172;47.530;10.256;2022-09-09T12:47:46;18.30;99.90
33881;DHT22;20172;47.530;10.256;2022-09-09T12:50:20;19.00;99.90
33881;DHT22;20172;47.530;10.256;2022-09-09T12:52:47;19.30;99.90
33881;DHT22;20172;47.530;10.256;2022-09-09T12:55:16;19.20;99.90
33881;DHT22;20172;47.530;10.256;2022-09-09T12:57:43;19.20;99.90
33881;DHT22;20172;47.530;10.256;2022-09-09T13:00:14;18.90;99.90
33881;DHT22;20172;47.530;10.256;2022-09-09T13:05:35;18.40;99.90
33881;DHT22;20172;47.530;10.256;2022-09-09T13:08:02;18.40;99.90
33881;DHT22;20172;47.530;10.256;2022-09-09T13:10:28;18.30;99.90
33881;DHT22;20172;47.530;10.256;2022-09-09T13:12:56;18.10;99.90
33881;DHT22;20172;47.530;10.256;2022-09-09T13:15:24;18.20;99.90
33881;DHT22;20172;47.530;10.256;2022-09-09T13:17:52;18.20;99.90
33881;DHT22;20172;47.530;10.256;2022-09-09T13:20:21;18.30;99.90
33881;DHT22;20172;47.530;10.256;2022-09-09T13:22:48;18.20;99.90
33881;DHT22;20172;47.530;10.256;2022-09-09T13:27:57;17.80;99.90
33881;DHT22;20172;47.530;10.256;2022-09-09T13:30:28;17.60;99.90
33881;DHT22;20172;47.530;10.256;2022-09-09T13:33:00;17.70;99.90
33881;DHT22;20172;47.530;10.256;2022-09-09T13:35:28;17.80;99.90
33881;DHT22;20172;47.530;10.256;2022-09-09T13:37:54;17.30;99.90
33881;DHT22;20172;47.530;10.256;2022-09-09T13:40:22;17.40;99.90
33881;DHT22;20172;47.530;10.256;2022-09-09T13:42:51;17.60;99.90
33881;DHT22;20172;47.530;10.256;2022-09-09T13:45:18;17.70;99.90
33881;DHT22;20172;47.530;10.256;2022-09-09T13:47:45;18.10;99.90
33881;DHT22;20172;47.530;10.256;2022-09-09T13:52:48;25.30;99.90
33881;DHT22;20172;47.530;10.256;2022-09-09T13:55:15;28.40;99.90
33881;DHT22;20172;47.530;10.256;2022-09-09T13:57:49;27.80;99.90
33881;DHT22;20172;47.530;10.256;2022-09-09T14:00:15;26.40;99.90
33881;DHT22;20172;47.530;10.256;2022-09-09T14:02:41;24.20;99.90
33881;DHT22;20172;47.530;10.256;2022-09-09T14:05:06;25.70;99.90
33881;DHT22;20172;47.530;10.256;2022-09-09T14:07:32;28.70;99.40
33881;DHT22;20172;47.530;10.256;2022-09-09T14:09:57;33.20;90.90
33881;DHT22;20172;47.530;10.256;2022-09-09T14:12:24;33.50;84.00
33881;DHT22;20172;47.530;10.256;2022-09-09T14:14:50;34.00;75.20
33881;DHT22;20172;47.530;10.256;2022-09-09T14:17:16;32.40;75.30
33881;DHT22;20172;47.530;10.256;2022-09-09T14:19:41;28.00;84.60
33881;DHT22;20172;47.530;10.256;2022-09-09T14:22:07;29.20;82.50
33881;DHT22;20172;47.530;10.256;2022-09-09T14:24:33;30.30;79.20
33881;DHT22;20172;47.530;10.256;2022-09-09T14:26:58;30.50;76.30
33881;DHT22;20172;47.530;10.256;2022-09-09T14:29:24;31.80;74.80
33881;DHT22;20172;47.530;10.256;2022-09-09T14:31:51;31.20;74.00
33881;DHT22;20172;47.530;10.256;2022-09-09T14:34:17;31.10;71.60
33881;DHT22;20172;47.530;10.256;2022-09-09T14:36:43;31.20;73.90
33881;DHT22;20172;47.530;10.256;2022-09-09T14:39:10;29.80;75.20
33881;DHT22;20172;47.530;10.256;2022-09-09T14:41:39;26.60;83.00
33881;DHT22;20172;47.530;10.256;2022-09-09T14:44:04;24.60;87.40
33881;DHT22;20172;47.530;10.256;2022-09-09T14:46:30;25.90;87.70
33881;DHT22;20172;47.530;10.256;2022-09-09T14:48:56;24.90;89.30
33881;DHT22;20172;47.530;10.256;2022-09-09T14:51:22;23.40;91.90
33881;DHT22;20172;47.530;10.256;2022-09-09T14:53:50;22.20;92.80
33881;DHT22;20172;47.530;10.256;2022-09-09T14:56:17;21.70;94.70
33881;DHT22;20172;47.530;10.256;2022-09-09T14:58:43;21.90;95.00
33881;DHT22;20172;47.530;10.256;2022-09-09T15:01:10;22.60;94.50
33881;DHT22;20172;47.530;10.256;2022-09-09T15:03:39;24.50;92.70
33881;DHT22;20172;47.530;10.256;2022-09-09T15:06:07;26.00;89.40
33881;DHT22;20172;47.530;10.256;2022-09-09T15:08:34;24.90;90.80
33881;DHT22;20172;47.530;10.256;2022-09-09T15:11:01;23.50;92.40
33881;DHT22;20172;47.530;10.256;2022-09-09T15:13:26;22.80;92.80
33881;DHT22;20172;47.530;10.256;2022-09-09T15:15:52;23.10;93.70
33881;DHT22;20172;47.530;10.256;2022-09-09T15:18:19;23.00;93.60
33881;DHT22;20172;47.530;10.256;2022-09-09T15:20:45;22.10;94.50
33881;DHT22;20172;47.530;10.256;2022-09-09T15:23:11;22.10;94.60
33881;DHT22;20172;47.530;10.256;2022-09-09T15:25:37;21.60;95.50
33881;DHT22;20172;47.530;10.256;2022-09-09T15:28:02;20.60;97.80
33881;DHT22;20172;47.530;10.256;2022-09-09T15:30:28;20.10;99.20
33881;DHT22;20172;47.530;10.256;2022-09-09T15:32:53;19.70;99.90
33881;DHT22;20172;47.530;10.256;2022-09-09T15:35:20;19.40;99.90
33881;DHT22;20172;47.530;10.256;2022-09-09T15:37:45;19.60;99.90
33881;DHT22;20172;47.530;10.256;2022-09-09T15:40:11;20.00;99.90
33881;DHT22;20172;47.530;10.256;2022-09-09T15:42:36;19.70;99.90
33881;DHT22;20172;47.530;10.256;2022-09-09T15:45:02;19.50;99.90
33881;DHT22;20172;47.530;10.256;2022-09-09T15:47:28;19.50;99.90
33881;DHT22;20172;47.530;10.256;2022-09-09T15:49:53;19.10;99.90
33881;DHT22;20172;47.530;10.256;2022-09-09T15:52:19;18.60;99.90
33881;DHT22;20172;47.530;10.256;2022-09-09T15:54:44;18.30;99.90
33881;DHT22;20172;47.530;10.256;2022-09-09T15:57:11;18.40;99.90
33881;DHT22;20172;47.530;10.256;2022-09-09T15:59:38;18.30;99.90
33881;DHT22;20172;47.530;10.256;2022-09-09T16:02:03;18.30;99.90
33881;DHT22;20172;47.530;10.256;2022-09-09T16:04:29;18.40;99.90
33881;DHT22;20172;47.530;10.256;2022-09-09T16:08:13;18.60;99.90
33881;DHT22;20172;47.530;10.256;2022-09-09T16:10:39;18.90;99.90
33881;DHT22;20172;47.530;10.256;2022-09-09T16:13:04;19.10;99.90
33881;DHT22;20172;47.530;10.256;2022-09-09T16:15:30;19.30;99.90
33881;DHT22;20172;47.530;10.256;2022-09-09T16:17:55;19.40;99.90
33881;DHT22;20172;47.530;10.256;2022-09-09T16:20:21;19.30;99.90
33881;DHT22;20172;47.530;10.256;2022-09-09T16:22:47;19.30;99.90
33881;DHT22;20172;47.530;10.256;2022-09-09T16:25:12;19.30;99.90
33881;DHT22;20172;47.530;10.256;2022-09-09T16:27:38;19.20;99.90
33881;DHT22;20172;47.530;10.256;2022-09-09T16:30:04;19.10;99.90
33881;DHT22;20172;47.530;10.256;2022-09-09T16:32:29;19.20;99.90
33881;DHT22;20172;47.530;10.256;2022-09-09T16:34:55;19.20;99.90
33881;DHT22;20172;47.530;10.256;2022-09-09T16:37:21;19.10;99.90
33881;DHT22;20172;47.530;10.256;2022-09-09T16:39:47;19.00;99.90
33881;DHT22;20172;47.530;10.256;2022-09-09T16:42:12;18.80;99.90
33881;DHT22;20172;47.530;10.256;2022-09-09T16:44:38;18.50;99.90
33881;DHT22;20172;47.530;10.256;2022-09-09T16:47:03;18.50;99.90
33881;DHT22;20172;47.530;10.256;2022-09-09T16:49:29;18.60;99.90
33881;DHT22;20172;47.530;10.256;2022-09-09T16:51:57;18.70;99.90
33881;DHT22;20172;47.530;10.256;2022-09-09T16:54:23;18.50;99.90
33881;DHT22;20172;47.530;10.256;2022-09-09T16:56:50;17.90;99.90
33881;DHT22;20172;47.530;10.256;2022-09-09T16:59:19;17.70;99.90
33881;DHT22;20172;47.530;10.256;2022-09-09T17:01:47;17.50;99.90
33881;DHT22;20172;47.530;10.256;2022-09-09T17:04:21;17.60;99.90
33881;DHT22;20172;47.530;10.256;2022-09-09T17:06:51;17.70;99.90
33881;DHT22;20172;47.530;10.256;2022-09-09T17:09:17;17.80;99.90
33881;DHT22;20172;47.530;10.256;2022-09-09T17:11:43;17.60;99.90
33881;DHT22;20172;47.530;10.256;2022-09-09T17:14:14;17.40;99.90
33881;DHT22;20172;47.530;10.256;2022-09-09T17:16:40;17.10;99.90
33881;DHT22;20172;47.530;10.256;2022-09-09T17:19:06;17.00;99.90
33881;DHT22;20172;47.530;10.256;2022-09-09T17:21:33;16.90;99.90
33881;DHT22;20172;47.530;10.256;2022-09-09T17:23:59;17.00;99.90
33881;DHT22;20172;47.530;10.256;2022-09-09T17:26:28;16.90;99.90
33881;DHT22;20172;47.530;10.256;2022-09-09T17:28:54;16.90;99.90